sensor_id;sensor_type;location;lat;lon;timestamp;pressure;altitude;pressure_sealevel;temperature;humidity
50434;BME280;36361;38.954;-9.002;2023-03-07T00:00:03;100315.75;;;11.80;100.00
50434;BME280;36361;38.954;-9.002;2023-03-07T00:01:06;100313.44;;;11.77;100.00
50434;BME280;36361;38.954;-9.002;2023-03-07T00:02:08;100318.31;;;11.75;100.00
50434;BME280;36361;38.954;-9.002;2023-03-07T00:03:11;100320.19;;;11.75;100.00
50434;BME280;36361;38.954;-9.002;2023-03-07T00:04:13;100316.03;;;11.72;100.00
50434;BME280;36361;38.954;-9.002;2023-03-07T00:05:14;100309.88;;;11.77;100.00
50434;BME280;36361;38.954;-9.002;2023-03-07T00:06:15;100315.09;;;11.78;100.00
50434;BME280;36361;38.954;-9.002;2023-03-07T00:07:16;100308.41;;;11.81;100.00
50434;BME280;36361;38.954;-9.002;2023-03-07T00:08:20;100319.31;;;11.81;100.00
50434;BME280;36361;38.954;-9.002;2023-03-07T00:09:21;100308.81;;;11.78;100.00
50434;BME280;36361;38.954;-9.002;2023-03-07T00:10:21;100311.88;;;11.69;100.00
50434;BME280;36361;38.954;-9.002;2023-03-07T00:11:23;100314.75;;;11.75;100.00
50434;BME280;36361;38.954;-9.002;2023-03-07T00:12:24;100319.44;;;11.67;100.00
50434;BME280;36361;38.954;-9.002;2023-03-07T00:13:25;100318.25;;;11.63;100.00
50434;BME280;36361;38.954;-9.002;2023-03-07T00:14:27;100312.91;;;11.57;100.00
50434;BME280;36361;38.954;-9.002;2023-03-07T00:15:29;100318.44;;;11.50;100.00
50434;BME280;36361;38.954;-9.002;2023-03-07T00:16:29;100317.38;;;11.51;100.00
50434;BME280;36361;38.954;-9.002;2023-03-07T00:17:30;100319.66;;;11.54;100.00
50434;BME280;36361;38.954;-9.002;2023-03-07T00:18:32;100317.53;;;11.56;100.00
50434;BME280;36361;38.954;-9.002;2023-03-07T00:19:33;100315.22;;;11.72;100.00
50434;BME280;36361;38.954;-9.002;2023-03-07T00:20:33;100320.97;;;11.82;100.00
50434;BME280;36361;38.954;-9.002;2023-03-07T00:21:34;100323.09;;;11.80;100.00
50434;BME280;36361;38.954;-9.002;2023-03-07T00:22:35;100320.03;;;11.69;100.00
50434;BME280;36361;38.954;-9.002;2023-03-07T00:23:38;100324.47;;;11.71;100.00
50434;BME280;36361;38.954;-9.002;2023-03-07T00:24:39;100318.53;;;11.74;100.00
50434;BME280;36361;38.954;-9.002;2023-03-07T00:25:40;100315.31;;;11.95;100.00
50434;BME280;36361;38.954;-9.002;2023-03-07T00:26:41;100324.28;;;11.84;100.00
50434;BME280;36361;38.954;-9.002;2023-03-07T00:27:42;100320.56;;;11.78;100.00
50434;BME280;36361;38.954;-9.002;2023-03-07T00:28:45;100323.00;;;11.68;100.00
50434;BME280;36361;38.954;-9.002;2023-03-07T00:29:47;100317.66;;;11.80;100.00
50434;BME280;36361;38.954;-9.002;2023-03-07T00:30:48;100319.31;;;11.81;100.00
50434;BME280;36361;38.954;-9.002;2023-03-07T00:31:50;100315.66;;;11.68;100.00
50434;BME280;36361;38.954;-9.002;2023-03-07T00:32:51;100314.31;;;11.59;100.00
50434;BME280;36361;38.954;-9.002;2023-03-07T00:33:51;100316.34;;;11.52;100.00
50434;BME280;36361;38.954;-9.002;2023-03-07T00:34:55;100311.56;;;11.48;100.00
50434;BME280;36361;38.954;-9.002;2023-03-07T00:36:05;100319.66;;;11.54;100.00
50434;BME280;36361;38.954;-9.002;2023-03-07T00:37:06;100318.72;;;11.60;100.00
50434;BME280;36361;38.954;-9.002;2023-03-07T00:38:10;100324.16;;;11.60;100.00
50434;BME280;36361;38.954;-9.002;2023-03-07T00:39:13;100318.72;;;11.60;100.00
50434;BME280;36361;38.954;-9.002;2023-03-07T00:40:14;100315.38;;;11.58;100.00
50434;BME280;36361;38.954;-9.002;2023-03-07T00:41:23;100321.00;;;11.63;100.00
50434;BME280;36361;38.954;-9.002;2023-03-07T00:42:25;100323.72;;;11.63;100.00
50434;BME280;36361;38.954;-9.002;2023-03-07T00:43:28;100317.25;;;11.46;100.00
50434;BME280;36361;38.954;-9.002;2023-03-07T00:44:29;100314.34;;;11.41;100.00
50434;BME280;36361;38.954;-9.002;2023-03-07T00:45:34;100325.25;;;11.41;100.00
50434;BME280;36361;38.954;-9.002;2023-03-07T00:46:35;100313.75;;;11.39;100.00
50434;BME280;36361;38.954;-9.002;2023-03-07T00:47:36;100314.63;;;11.51;100.00
50434;BME280;36361;38.954;-9.002;2023-03-07T00:48:39;100321.03;;;11.75;100.00
50434;BME280;36361;38.954;-9.002;2023-03-07T00:49:39;100326.22;;;11.65;100.00
50434;BME280;36361;38.954;-9.002;2023-03-07T00:50:41;100321.44;;;11.60;100.00
50434;BME280;36361;38.954;-9.002;2023-03-07T00:51:41;100322.78;;;11.69;100.00
50434;BME280;36361;38.954;-9.002;2023-03-07T00:52:42;100320.03;;;11.69;100.00
50434;BME280;36361;38.954;-9.002;2023-03-07T00:53:43;100319.09;;;11.64;100.00
50434;BME280;36361;38.954;-9.002;2023-03-07T00:54:44;100324.00;;;11.74;100.00
50434;BME280;36361;38.954;-9.002;2023-03-07T00:56:05;100318.50;;;11.62;100.00
50434;BME280;36361;38.954;-9.002;2023-03-07T00:57:07;100313.97;;;11.56;100.00
50434;BME280;36361;38.954;-9.002;2023-03-07T00:58:07;100317.53;;;11.56;100.00
50434;BME280;36361;38.954;-9.002;2023-03-07T00:59:08;100322.22;;;11.49;100.00
50434;BME280;36361;38.954;-9.002;2023-03-07T01:00:10;100326.59;;;11.50;100.00
50434;BME280;36361;38.954;-9.002;2023-03-07T01:01:13;100318.16;;;11.40;100.00
50434;BME280;36361;38.954;-9.002;2023-03-07T01:02:14;100317.78;;;11.36;100.00
50434;BME280;36361;38.954;-9.002;2023-03-07T01:03:16;100327.94;;;11.59;100.00
50434;BME280;36361;38.954;-9.002;2023-03-07T01:04:16;100325.25;;;11.41;100.00
50434;BME280;36361;38.954;-9.002;2023-03-07T01:05:17;100322.41;;;11.36;100.00
50434;BME280;36361;38.954;-9.002;2023-03-07T01:06:20;100324.06;;;11.37;100.00
50434;BME280;36361;38.954;-9.002;2023-03-07T01:07:21;100321.47;;;11.42;100.00
50434;BME280;36361;38.954;-9.002;2023-03-07T01:08:22;100326.63;;;11.32;100.00
50434;BME280;36361;38.954;-9.002;2023-03-07T01:09:23;100319.53;;;11.31;100.00
50434;BME280;36361;38.954;-9.002;2023-03-07T01:10:24;100323.31;;;11.30;100.00
50434;BME280;36361;38.954;-9.002;2023-03-07T01:11:28;100333.75;;;11.33;100.00
50434;BME280;36361;38.954;-9.002;2023-03-07T01:12:29;100328.41;;;11.26;100.00
50434;BME280;36361;38.954;-9.002;2023-03-07T01:13:31;100328.84;;;11.23;100.00
50434;BME280;36361;38.954;-9.002;2023-03-07T01:14:32;100327.09;;;11.29;100.00
50434;BME280;36361;38.954;-9.002;2023-03-07T01:15:33;100336.44;;;11.51;100.00
50434;BME280;36361;38.954;-9.002;2023-03-07T01:16:36;100329.22;;;11.27;100.00
50434;BME280;36361;38.954;-9.002;2023-03-07T01:17:37;100332.38;;;11.24;100.00
50434;BME280;36361;38.954;-9.002;2023-03-07T01:18:39;100333.38;;;11.29;100.00
50434;BME280;36361;38.954;-9.002;2023-03-07T01:19:40;100331.94;;;11.27;100.00
50434;BME280;36361;38.954;-9.002;2023-03-07T01:20:42;100332.78;;;11.27;100.00
50434;BME280;36361;38.954;-9.002;2023-03-07T01:21:43;100327.09;;;11.29;100.00
50434;BME280;36361;38.954;-9.002;2023-03-07T01:22:44;100335.34;;;11.22;100.00
50434;BME280;36361;38.954;-9.002;2023-03-07T01:23:45;100338.91;;;11.23;100.00
50434;BME280;36361;38.954;-9.002;2023-03-07T01:24:46;100339.44;;;11.13;100.00
50434;BME280;36361;38.954;-9.002;2023-03-07T01:25:48;100331.44;;;11.18;100.00
50434;BME280;36361;38.954;-9.002;2023-03-07T01:26:49;100339.66;;;11.11;100.00
50434;BME280;36361;38.954;-9.002;2023-03-07T01:27:53;100338.75;;;10.99;100.00
50434;BME280;36361;38.954;-9.002;2023-03-07T01:29:03;100326.81;;;11.00;100.00
50434;BME280;36361;38.954;-9.002;2023-03-07T01:30:08;100337.53;;;10.95;100.00
50434;BME280;36361;38.954;-9.002;2023-03-07T01:31:11;100333.75;;;10.96;100.00
50434;BME280;36361;38.954;-9.002;2023-03-07T01:32:14;100324.84;;;10.89;100.00
50434;BME280;36361;38.954;-9.002;2023-03-07T01:33:15;100330.28;;;10.89;100.00
50434;BME280;36361;38.954;-9.002;2023-03-07T01:34:16;100329.22;;;10.90;100.00
50434;BME280;36361;38.954;-9.002;2023-03-07T01:35:17;100326.28;;;10.92;100.00
50434;BME280;36361;38.954;-9.002;2023-03-07T01:36:27;100331.72;;;10.92;100.00
50434;BME280;36361;38.954;-9.002;2023-03-07T01:37:31;100330.66;;;10.93;100.00
50434;BME280;36361;38.954;-9.002;2023-03-07T01:38:32;100325.91;;;10.88;100.00
50434;BME280;36361;38.954;-9.002;2023-03-07T01:39:36;100326.81;;;10.82;100.00
50434;BME280;36361;38.954;-9.002;2023-03-07T01:40:40;100337.09;;;10.80;100.00
50434;BME280;36361;38.954;-9.002;2023-03-07T01:41:43;100331.41;;;10.81;100.00
50434;BME280;36361;38.954;-9.002;2023-03-07T01:42:44;100334.69;;;10.90;100.00
50434;BME280;36361;38.954;-9.002;2023-03-07T01:43:46;100341.78;;;10.91;100.00
50434;BME280;36361;38.954;-9.002;2023-03-07T01:46:45;100337.22;;;10.85;100.00
50434;BME280;36361;38.954;-9.002;2023-03-07T01:47:47;100342.38;;;10.75;100.00
50434;BME280;36361;38.954;-9.002;2023-03-07T01:49:56;100339.28;;;10.71;100.00
50434;BME280;36361;38.954;-9.002;2023-03-07T01:50:58;100330.28;;;10.71;100.00
50434;BME280;36361;38.954;-9.002;2023-03-07T01:52:09;100345.69;;;10.77;100.00
50434;BME280;36361;38.954;-9.002;2023-03-07T01:53:14;100338.75;;;10.81;100.00
50434;BME280;36361;38.954;-9.002;2023-03-07T01:54:18;100341.47;;;10.81;100.00
50434;BME280;36361;38.954;-9.002;2023-03-07T01:55:23;100337.09;;;10.80;100.00
50434;BME280;36361;38.954;-9.002;2023-03-07T01:56:27;100349.03;;;10.79;100.00
50434;BME280;36361;38.954;-9.002;2023-03-07T01:57:31;100350.69;;;10.80;100.00
50434;BME280;36361;38.954;-9.002;2023-03-07T01:58:35;100345.41;;;10.85;100.00
50434;BME280;36361;38.954;-9.002;2023-03-07T01:59:42;100346.47;;;10.84;100.00
50434;BME280;36361;38.954;-9.002;2023-03-07T02:00:44;100351.06;;;10.83;100.00
50434;BME280;36361;38.954;-9.002;2023-03-07T02:01:45;100347.34;;;10.78;100.00
50434;BME280;36361;38.954;-9.002;2023-03-07T02:02:49;100350.25;;;10.83;100.00
50434;BME280;36361;38.954;-9.002;2023-03-07T02:04:00;100344.19;;;10.81;100.00
50434;BME280;36361;38.954;-9.002;2023-03-07T02:06:11;100349.03;;;10.79;100.00
50434;BME280;36361;38.954;-9.002;2023-03-07T02:07:13;100347.56;;;10.76;100.00
50434;BME280;36361;38.954;-9.002;2023-03-07T02:08:16;100348.41;;;10.77;100.00
50434;BME280;36361;38.954;-9.002;2023-03-07T02:09:20;100341.47;;;10.81;100.00
50434;BME280;36361;38.954;-9.002;2023-03-07T02:10:22;100348.56;;;10.82;100.00
50434;BME280;36361;38.954;-9.002;2023-03-07T02:11:24;100346.00;;;10.87;100.00
50434;BME280;36361;38.954;-9.002;2023-03-07T02:12:26;100349.19;;;10.84;100.00
50434;BME280;36361;38.954;-9.002;2023-03-07T02:13:27;100356.50;;;10.83;100.00
50434;BME280;36361;38.954;-9.002;2023-03-07T02:14:28;100344.19;;;10.81;100.00
50434;BME280;36361;38.954;-9.002;2023-03-07T02:15:29;100349.63;;;10.81;100.00
50434;BME280;36361;38.954;-9.002;2023-03-07T02:16:30;100347.06;;;10.86;100.00
50434;BME280;36361;38.954;-9.002;2023-03-07T02:17:30;100347.69;;;10.88;100.00
50434;BME280;36361;38.954;-9.002;2023-03-07T02:18:34;100351.84;;;10.91;100.00
50434;BME280;36361;38.954;-9.002;2023-03-07T02:19:59;100348.13;;;10.85;100.00
50434;BME280;36361;38.954;-9.002;2023-03-07T02:21:25;100350.19;;;10.90;100.00
50434;BME280;36361;38.954;-9.002;2023-03-07T02:22:31;100344.78;;;10.83;100.00
50434;BME280;36361;38.954;-9.002;2023-03-07T02:24:50;100350.69;;;10.80;100.00
50434;BME280;36361;38.954;-9.002;2023-03-07T02:25:57;100357.56;;;10.82;100.00
50434;BME280;36361;38.954;-9.002;2023-03-07T02:27:01;100353.72;;;10.90;100.00
50434;BME280;36361;38.954;-9.002;2023-03-07T02:28:02;100346.69;;;11.01;100.00
50434;BME280;36361;38.954;-9.002;2023-03-07T02:29:05;100355.88;;;11.06;100.00
50434;BME280;36361;38.954;-9.002;2023-03-07T02:30:07;100348.91;;;11.10;100.00
50434;BME280;36361;38.954;-9.002;2023-03-07T02:31:09;100349.72;;;11.11;100.00
50434;BME280;36361;38.954;-9.002;2023-03-07T02:32:13;100347.00;;;11.11;100.00
50434;BME280;36361;38.954;-9.002;2023-03-07T02:33:17;100353.50;;;11.10;100.00
50434;BME280;36361;38.954;-9.002;2023-03-07T02:34:26;100350.09;;;11.15;100.00
50434;BME280;36361;38.954;-9.002;2023-03-07T02:35:38;100342.63;;;11.10;100.00
50434;BME280;36361;38.954;-9.002;2023-03-07T02:36:40;100350.72;;;11.17;100.00
50434;BME280;36361;38.954;-9.002;2023-03-07T02:37:52;100346.47;;;11.21;100.00
50434;BME280;36361;38.954;-9.002;2023-03-07T02:38:55;100343.09;;;11.25;100.00
50434;BME280;36361;38.954;-9.002;2023-03-07T02:40:01;100346.00;;;11.24;100.00
50434;BME280;36361;38.954;-9.002;2023-03-07T02:41:06;100348.13;;;11.22;100.00
50434;BME280;36361;38.954;-9.002;2023-03-07T02:42:22;100344.03;;;11.13;100.00
50434;BME280;36361;38.954;-9.002;2023-03-07T02:43:30;100333.16;;;11.13;100.00
50434;BME280;36361;38.954;-9.002;2023-03-07T02:44:31;100338.84;;;11.11;100.00
50434;BME280;36361;38.954;-9.002;2023-03-07T02:45:32;100343.69;;;11.09;100.00
50434;BME280;36361;38.954;-9.002;2023-03-07T02:46:33;100335.88;;;11.13;100.00
50434;BME280;36361;38.954;-9.002;2023-03-07T02:47:33;100337.00;;;11.05;100.00
50434;BME280;36361;38.954;-9.002;2023-03-07T02:48:34;100343.28;;;11.05;100.00
50434;BME280;36361;38.954;-9.002;2023-03-07T02:49:35;100344.50;;;11.09;100.00
50434;BME280;36361;38.954;-9.002;2023-03-07T02:50:36;100340.56;;;11.05;100.00
50434;BME280;36361;38.954;-9.002;2023-03-07T02:51:37;100345.56;;;11.08;100.00
50434;BME280;36361;38.954;-9.002;2023-03-07T02:52:38;100344.22;;;10.99;100.00
50434;BME280;36361;38.954;-9.002;2023-03-07T02:53:39;100341.91;;;10.96;100.00
50434;BME280;36361;38.954;-9.002;2023-03-07T02:54:40;100338.38;;;10.96;100.00
50434;BME280;36361;38.954;-9.002;2023-03-07T02:55:41;100330.72;;;11.04;100.00
50434;BME280;36361;38.954;-9.002;2023-03-07T02:56:42;100342.09;;;11.01;100.00
50434;BME280;36361;38.954;-9.002;2023-03-07T02:57:43;100336.63;;;11.01;100.00
50434;BME280;36361;38.954;-9.002;2023-03-07T02:58:43;100335.28;;;11.10;100.00
50434;BME280;36361;38.954;-9.002;2023-03-07T02:59:44;100333.22;;;11.06;100.00
50434;BME280;36361;38.954;-9.002;2023-03-07T03:00:45;100332.03;;;11.02;100.00
50434;BME280;36361;38.954;-9.002;2023-03-07T03:01:46;100341.78;;;11.09;100.00
50434;BME280;36361;38.954;-9.002;2023-03-07T03:02:47;100345.28;;;11.17;100.00
50434;BME280;36361;38.954;-9.002;2023-03-07T03:03:47;100341.50;;;11.18;100.00
50434;BME280;36361;38.954;-9.002;2023-03-07T03:04:48;100336.09;;;11.11;100.00
50434;BME280;36361;38.954;-9.002;2023-03-07T03:05:49;100332.56;;;11.10;100.00
50434;BME280;36361;38.954;-9.002;2023-03-07T03:06:50;100331.50;;;11.11;100.00
50434;BME280;36361;38.954;-9.002;2023-03-07T03:07:51;100334.81;;;11.14;100.00
50434;BME280;36361;38.954;-9.002;2023-03-07T03:08:52;100334.75;;;11.20;100.00
50434;BME280;36361;38.954;-9.002;2023-03-07T03:09:55;100333.31;;;11.18;100.00
50434;BME280;36361;38.954;-9.002;2023-03-07T03:10:56;100330.19;;;11.14;100.00
50434;BME280;36361;38.954;-9.002;2023-03-07T03:11:59;100311.75;;;11.16;100.00
50434;BME280;36361;38.954;-9.002;2023-03-07T03:13:04;100325.59;;;11.15;100.00
50434;BME280;36361;38.954;-9.002;2023-03-07T03:14:04;100325.16;;;11.18;100.00
50434;BME280;36361;38.954;-9.002;2023-03-07T03:15:09;100335.22;;;11.17;100.00
50434;BME280;36361;38.954;-9.002;2023-03-07T03:16:13;100329.66;;;11.24;100.00
50434;BME280;36361;38.954;-9.002;2023-03-07T03:17:22;100331.44;;;11.18;100.00
50434;BME280;36361;38.954;-9.002;2023-03-07T03:18:26;100324.84;;;11.26;100.00
50434;BME280;36361;38.954;-9.002;2023-03-07T03:19:28;100325.44;;;11.28;100.00
50434;BME280;36361;38.954;-9.002;2023-03-07T03:20:29;100319.22;;;11.21;100.00
50434;BME280;36361;38.954;-9.002;2023-03-07T03:21:39;100323.03;;;11.20;100.00
50434;BME280;36361;38.954;-9.002;2023-03-07T03:22:40;100333.91;;;11.20;100.00
50434;BME280;36361;38.954;-9.002;2023-03-07T03:23:42;100330.34;;;11.19;100.00
50434;BME280;36361;38.954;-9.002;2023-03-07T03:24:43;100329.59;;;11.12;100.00
50434;BME280;36361;38.954;-9.002;2023-03-07T03:26:01;100335.28;;;11.10;100.00
50434;BME280;36361;38.954;-9.002;2023-03-07T03:27:06;100335.75;;;11.07;100.00
50434;BME280;36361;38.954;-9.002;2023-03-07T03:28:07;100332.84;;;11.02;100.00
50434;BME280;36361;38.954;-9.002;2023-03-07T03:29:08;100337.25;;;11.03;100.00
50434;BME280;36361;38.954;-9.002;2023-03-07T03:30:11;100330.72;;;11.04;100.00
50434;BME280;36361;38.954;-9.002;2023-03-07T03:31:13;100326.50;;;11.08;100.00
50434;BME280;36361;38.954;-9.002;2023-03-07T03:32:14;100328.16;;;11.09;100.00
50434;BME280;36361;38.954;-9.002;2023-03-07T03:33:17;100318.03;;;11.17;100.00
50434;BME280;36361;38.954;-9.002;2023-03-07T03:34:19;100324.97;;;11.13;100.00
50434;BME280;36361;38.954;-9.002;2023-03-07T03:35:20;100322.25;;;11.13;100.00
50434;BME280;36361;38.954;-9.002;2023-03-07T03:36:21;100315.63;;;11.08;100.00
50434;BME280;36361;38.954;-9.002;2023-03-07T03:37:26;100323.63;;;11.03;100.00
50434;BME280;36361;38.954;-9.002;2023-03-07T03:38:28;100323.69;;;10.97;100.00
50434;BME280;36361;38.954;-9.002;2023-03-07T03:39:30;100324.97;;;10.94;100.00
50434;BME280;36361;38.954;-9.002;2023-03-07T03:40:33;100323.78;;;10.90;100.00
50434;BME280;36361;38.954;-9.002;2023-03-07T03:41:33;100325.44;;;10.91;100.00
50434;BME280;36361;38.954;-9.002;2023-03-07T03:42:34;100327.47;;;10.96;100.00
50434;BME280;36361;38.954;-9.002;2023-03-07T03:43:36;100326.66;;;10.95;100.00
50434;BME280;36361;38.954;-9.002;2023-03-07T03:44:36;100318.72;;;10.94;100.00
50434;BME280;36361;38.954;-9.002;2023-03-07T03:45:37;100323.06;;;10.76;100.00
50434;BME280;36361;38.954;-9.002;2023-03-07T03:46:41;100321.66;;;10.74;100.00
50434;BME280;36361;38.954;-9.002;2023-03-07T03:47:42;100318.31;;;10.72;100.00
50434;BME280;36361;38.954;-9.002;2023-03-07T03:48:44;100313.66;;;10.79;100.00
50434;BME280;36361;38.954;-9.002;2023-03-07T03:49:48;100310.53;;;10.75;100.00
50434;BME280;36361;38.954;-9.002;2023-03-07T03:50:49;100315.66;;;10.65;100.00
50434;BME280;36361;38.954;-9.002;2023-03-07T03:51:50;100314.00;;;10.64;100.00
50434;BME280;36361;38.954;-9.002;2023-03-07T03:52:51;100307.50;;;10.65;100.00
50434;BME280;36361;38.954;-9.002;2023-03-07T03:53:53;100312.47;;;10.68;100.00
50434;BME280;36361;38.954;-9.002;2023-03-07T03:54:55;100312.34;;;10.63;100.00
50434;BME280;36361;38.954;-9.002;2023-03-07T03:57:07;100307.66;;;10.70;100.00
50434;BME280;36361;38.954;-9.002;2023-03-07T03:58:07;100316.44;;;10.72;100.00
50434;BME280;36361;38.954;-9.002;2023-03-07T03:59:08;100310.22;;;10.65;100.00
50434;BME280;36361;38.954;-9.002;2023-03-07T04:00:10;100307.22;;;10.73;100.00
50434;BME280;36361;38.954;-9.002;2023-03-07T04:01:14;100308.94;;;10.68;100.00
50434;BME280;36361;38.954;-9.002;2023-03-07T04:02:15;100302.88;;;10.66;100.00
50434;BME280;36361;38.954;-9.002;2023-03-07T04:03:16;100307.88;;;10.69;100.00
50434;BME280;36361;38.954;-9.002;2023-03-07T04:04:17;100308.50;;;10.71;100.00
50434;BME280;36361;38.954;-9.002;2023-03-07T04:05:18;100303.78;;;10.78;100.00
50434;BME280;36361;38.954;-9.002;2023-03-07T04:06:27;100303.78;;;10.78;100.00
50434;BME280;36361;38.954;-9.002;2023-03-07T04:07:29;100303.38;;;10.81;100.00
50434;BME280;36361;38.954;-9.002;2023-03-07T04:08:31;100308.34;;;10.84;100.00
50434;BME280;36361;38.954;-9.002;2023-03-07T04:09:32;100295.34;;;10.86;100.00
50434;BME280;36361;38.954;-9.002;2023-03-07T04:10:33;100301.25;;;10.83;100.00
50434;BME280;36361;38.954;-9.002;2023-03-07T04:11:34;100308.34;;;10.84;100.00
50434;BME280;36361;38.954;-9.002;2023-03-07T04:12:35;100311.06;;;10.84;100.00
50434;BME280;36361;38.954;-9.002;2023-03-07T04:13:37;100314.84;;;10.83;100.00
50434;BME280;36361;38.954;-9.002;2023-03-07T04:14:38;100310.47;;;10.82;100.00
50434;BME280;36361;38.954;-9.002;2023-03-07T04:15:39;100309.63;;;10.81;100.00
50434;BME280;36361;38.954;-9.002;2023-03-07T04:16:40;100307.16;;;10.80;100.00
50434;BME280;36361;38.954;-9.002;2023-03-07T04:17:41;100309.41;;;10.83;100.00
50434;BME280;36361;38.954;-9.002;2023-03-07T04:18:42;100306.91;;;10.81;100.00
50434;BME280;36361;38.954;-9.002;2023-03-07T04:19:43;100302.13;;;10.77;100.00
50434;BME280;36361;38.954;-9.002;2023-03-07T04:20:44;100297.16;;;10.74;100.00
50434;BME280;36361;38.954;-9.002;2023-03-07T04:21:45;100304.72;;;10.72;100.00
50434;BME280;36361;38.954;-9.002;2023-03-07T04:22:49;100301.06;;;10.60;100.00
50434;BME280;36361;38.954;-9.002;2023-03-07T04:23:51;100293.94;;;10.59;100.00
50434;BME280;36361;38.954;-9.002;2023-03-07T04:24:59;100302.13;;;10.77;100.00
50434;BME280;36361;38.954;-9.002;2023-03-07T04:26:01;100300.75;;;10.68;100.00
50434;BME280;36361;38.954;-9.002;2023-03-07T04:27:07;100303.38;;;10.81;100.00
50434;BME280;36361;38.954;-9.002;2023-03-07T04:28:10;100302.44;;;10.87;100.00
50434;BME280;36361;38.954;-9.002;2023-03-07T04:29:12;100299.28;;;10.90;100.00
50434;BME280;36361;38.954;-9.002;2023-03-07T04:30:18;100296.09;;;10.93;100.00
50434;BME280;36361;38.954;-9.002;2023-03-07T04:31:24;100299.59;;;11.00;100.00
50434;BME280;36361;38.954;-9.002;2023-03-07T04:32:25;100301.53;;;10.93;100.00
50434;BME280;36361;38.954;-9.002;2023-03-07T04:33:26;100290.81;;;10.98;100.00
50434;BME280;36361;38.954;-9.002;2023-03-07T04:34:27;100302.44;;;10.87;100.00
50434;BME280;36361;38.954;-9.002;2023-03-07T04:35:38;100286.50;;;10.91;100.00
50434;BME280;36361;38.954;-9.002;2023-03-07T04:36:39;100288.81;;;10.87;100.00
50434;BME280;36361;38.954;-9.002;2023-03-07T04:37:42;100301.59;;;10.87;100.00
50434;BME280;36361;38.954;-9.002;2023-03-07T04:38:45;100294.13;;;10.82;100.00
50434;BME280;36361;38.954;-9.002;2023-03-07T04:39:46;100302.06;;;10.83;100.00
50434;BME280;36361;38.954;-9.002;2023-03-07T04:40:47;100297.75;;;10.94;100.00
50434;BME280;36361;38.954;-9.002;2023-03-07T04:41:48;100295.25;;;10.93;100.00
50434;BME280;36361;38.954;-9.002;2023-03-07T04:42:51;100292.38;;;10.88;100.00
50434;BME280;36361;38.954;-9.002;2023-03-07T04:43:53;100292.84;;;10.85;100.00
50434;BME280;36361;38.954;-9.002;2023-03-07T04:44:55;100302.91;;;10.84;100.00
50434;BME280;36361;38.954;-9.002;2023-03-07T04:45:56;100300.03;;;10.79;100.00
50434;BME280;36361;38.954;-9.002;2023-03-07T04:46:57;100298.75;;;10.81;100.00
50434;BME280;36361;38.954;-9.002;2023-03-07T04:47:57;100301.25;;;10.83;100.00
50434;BME280;36361;38.954;-9.002;2023-03-07T04:48:58;100296.69;;;10.77;100.00
50434;BME280;36361;38.954;-9.002;2023-03-07T04:49:59;100294.72;;;10.84;100.00
50434;BME280;36361;38.954;-9.002;2023-03-07T04:51:00;100295.78;;;10.83;100.00
50434;BME280;36361;38.954;-9.002;2023-03-07T04:52:01;100297.47;;;10.84;100.00
50434;BME280;36361;38.954;-9.002;2023-03-07T04:53:02;100301.25;;;10.83;100.00
50434;BME280;36361;38.954;-9.002;2023-03-07T04:54:03;100297.47;;;10.84;100.00
50434;BME280;36361;38.954;-9.002;2023-03-07T04:55:04;100298.69;;;10.88;100.00
50434;BME280;36361;38.954;-9.002;2023-03-07T04:56:08;100295.19;;;10.81;100.00
50434;BME280;36361;38.954;-9.002;2023-03-07T04:57:10;100306.31;;;10.79;100.00
50434;BME280;36361;38.954;-9.002;2023-03-07T04:58:11;100301.53;;;10.75;100.00
50434;BME280;36361;38.954;-9.002;2023-03-07T04:59:13;100301.53;;;10.75;100.00
50434;BME280;36361;38.954;-9.002;2023-03-07T05:00:15;100305.78;;;10.71;100.00
50434;BME280;36361;38.954;-9.002;2023-03-07T05:01:16;100303.66;;;10.73;100.00
50434;BME280;36361;38.954;-9.002;2023-03-07T05:02:18;100305.09;;;10.75;100.00
50434;BME280;36361;38.954;-9.002;2023-03-07T05:03:19;100300.94;;;10.73;100.00
50434;BME280;36361;38.954;-9.002;2023-03-07T05:04:19;100303.78;;;10.78;100.00
50434;BME280;36361;38.954;-9.002;2023-03-07T05:05:20;100307.81;;;10.75;100.00
50434;BME280;36361;38.954;-9.002;2023-03-07T05:06:21;100312.59;;;10.80;100.00
50434;BME280;36361;38.954;-9.002;2023-03-07T05:07:24;100317.63;;;10.76;100.00
50434;BME280;36361;38.954;-9.002;2023-03-07T05:08:25;100313.47;;;10.74;100.00
50434;BME280;36361;38.954;-9.002;2023-03-07T05:09:27;100313.47;;;10.74;100.00
50434;BME280;36361;38.954;-9.002;2023-03-07T05:10:30;100311.81;;;10.73;100.00
50434;BME280;36361;38.954;-9.002;2023-03-07T05:11:30;100308.56;;;10.64;100.00
50434;BME280;36361;38.954;-9.002;2023-03-07T05:12:31;100323.28;;;10.57;100.00
50434;BME280;36361;38.954;-9.002;2023-03-07T05:13:32;100314.22;;;10.63;100.00
50434;BME280;36361;38.954;-9.002;2023-03-07T05:14:33;100318.38;;;10.65;100.00
50434;BME280;36361;38.954;-9.002;2023-03-07T05:15:34;100312.28;;;10.70;100.00
50434;BME280;36361;38.954;-9.002;2023-03-07T05:16:35;100323.59;;;10.67;100.00
50434;BME280;36361;38.954;-9.002;2023-03-07T05:17:36;100304.78;;;10.65;100.00
50434;BME280;36361;38.954;-9.002;2023-03-07T05:18:37;100307.50;;;10.65;100.00
50434;BME280;36361;38.954;-9.002;2023-03-07T05:19:37;100304.53;;;10.67;100.00
50434;BME280;36361;38.954;-9.002;2023-03-07T05:20:38;100303.16;;;10.58;100.00
50434;BME280;36361;38.954;-9.002;2023-03-07T05:21:42;100302.34;;;10.57;100.00
50434;BME280;36361;38.954;-9.002;2023-03-07T05:22:44;100302.84;;;10.47;100.00
50434;BME280;36361;38.954;-9.002;2023-03-07T05:23:46;100303.91;;;10.46;100.00
50434;BME280;36361;38.954;-9.002;2023-03-07T05:24:47;100302.63;;;10.49;100.00